sensor_id;sensor_type;location;lat;lon;timestamp;pressure;altitude;pressure_sealevel;temperature;humidity
67038;BME280;53940;53.204;6.590;2022-11-20T00:01:35;101279.91;;;20.84;36.86
67038;BME280;53940;53.204;6.590;2022-11-20T00:04:36;101273.63;;;20.84;37.06
67038;BME280;53940;53.204;6.590;2022-11-20T00:07:36;101273.63;;;20.84;36.84
67038;BME280;53940;53.204;6.590;2022-11-20T00:10:37;101263.81;;;20.84;36.84
67038;BME280;53940;53.204;6.590;2022-11-20T00:13:38;101269.19;;;20.84;36.96
67038;BME280;53940;53.204;6.590;2022-11-20T00:16:38;101274.53;;;20.84;37.15
67038;BME280;53940;53.204;6.590;2022-11-20T00:19:39;101271.09;;;20.82;37.21
67038;BME280;53940;53.204;6.590;2022-11-20T00:22:39;101265.72;;;20.82;36.99
67038;BME280;53940;53.204;6.590;2022-11-20T00:25:39;101271.09;;;20.82;37.00
67038;BME280;53940;53.204;6.590;2022-11-20T00:28:41;101273.75;;;20.82;36.87
67038;BME280;53940;53.204;6.590;2022-11-20T00:31:42;101271.09;;;20.82;37.15
67038;BME280;53940;53.204;6.590;2022-11-20T00:34:42;101262.34;;;20.80;37.18
67038;BME280;53940;53.204;6.590;2022-11-20T00:37:43;101264.03;;;20.81;36.80
67038;BME280;53940;53.204;6.590;2022-11-20T00:40:43;101261.47;;;20.80;37.10
67038;BME280;53940;53.204;6.590;2022-11-20T00:43:43;101262.34;;;20.80;36.87
67038;BME280;53940;53.204;6.590;2022-11-20T00:46:44;101262.34;;;20.80;37.10
67038;BME280;53940;53.204;6.590;2022-11-20T00:49:44;101264.16;;;20.80;36.87
67038;BME280;53940;53.204;6.590;2022-11-20T00:52:44;101266.84;;;20.80;37.04
67038;BME280;53940;53.204;6.590;2022-11-20T00:56:02;101264.31;;;20.78;37.05
67038;BME280;53940;53.204;6.590;2022-11-20T00:59:02;101262.59;;;20.77;37.11
67038;BME280;53940;53.204;6.590;2022-11-20T01:02:03;101264.31;;;20.78;37.04
67038;BME280;53940;53.204;6.590;2022-11-20T01:05:03;101258.09;;;20.78;37.12
67038;BME280;53940;53.204;6.590;2022-11-20T01:08:04;101247.50;;;20.76;37.21
67038;BME280;53940;53.204;6.590;2022-11-20T01:11:07;101253.84;;;20.75;37.12
67038;BME280;53940;53.204;6.590;2022-11-20T01:14:13;101249.34;;;20.76;37.14
67038;BME280;53940;53.204;6.590;2022-11-20T01:17:14;101242.28;;;20.74;36.83
67038;BME280;53940;53.204;6.590;2022-11-20T01:20:14;101239.63;;;20.74;36.85
67038;BME280;53940;53.204;6.590;2022-11-20T01:23:15;101236.94;;;20.74;36.91
67038;BME280;53940;53.204;6.590;2022-11-20T01:26:18;101232.41;;;20.75;36.78
67038;BME280;53940;53.204;6.590;2022-11-20T01:29:21;101225.38;;;20.74;36.96
67038;BME280;53940;53.204;6.590;2022-11-20T01:32:22;101250.19;;;20.76;36.85
67038;BME280;53940;53.204;6.590;2022-11-20T01:35:22;101234.97;;;20.77;37.13
67038;BME280;53940;53.204;6.590;2022-11-20T01:38:22;101233.28;;;20.76;37.26
67038;BME280;53940;53.204;6.590;2022-11-20T01:41:24;101228.91;;;20.74;37.17
67038;BME280;53940;53.204;6.590;2022-11-20T01:44:58;101228.75;;;20.76;36.91
67038;BME280;53940;53.204;6.590;2022-11-20T01:47:58;101226.06;;;20.76;37.12
67038;BME280;53940;53.204;6.590;2022-11-20T01:50:59;101218.78;;;20.78;37.08
67038;BME280;53940;53.204;6.590;2022-11-20T01:54:04;101215.22;;;20.78;37.13
67038;BME280;53940;53.204;6.590;2022-11-20T01:57:06;101205.38;;;20.78;36.87
67038;BME280;53940;53.204;6.590;2022-11-20T02:00:13;101214.25;;;20.79;36.75
67038;BME280;53940;53.204;6.590;2022-11-20T02:03:16;101211.44;;;20.80;37.08
67038;BME280;53940;53.204;6.590;2022-11-20T02:06:31;101208.78;;;20.80;36.94
67038;BME280;53940;53.204;6.590;2022-11-20T02:09:35;101191.72;;;20.81;36.78
67038;BME280;53940;53.204;6.590;2022-11-20T02:12:35;101185.38;;;20.82;36.76
67038;BME280;53940;53.204;6.590;2022-11-20T02:15:54;101183.47;;;20.84;36.85
67038;BME280;53940;53.204;6.590;2022-11-20T02:18:56;101183.47;;;20.84;36.73
67038;BME280;53940;53.204;6.590;2022-11-20T02:22:18;101183.47;;;20.84;36.60
67038;BME280;53940;53.204;6.590;2022-11-20T02:25:21;101178.81;;;20.86;36.78
67038;BME280;53940;53.204;6.590;2022-11-20T02:28:22;101185.03;;;20.87;36.56
67038;BME280;53940;53.204;6.590;2022-11-20T02:31:22;101182.06;;;20.90;36.60
67038;BME280;53940;53.204;6.590;2022-11-20T02:34:23;101188.28;;;20.91;36.57
67038;BME280;53940;53.204;6.590;2022-11-20T02:37:30;101189.97;;;20.92;36.66
67038;BME280;53940;53.204;6.590;2022-11-20T02:40:32;101188.00;;;20.94;36.41
67038;BME280;53940;53.204;6.590;2022-11-20T02:43:33;101190.56;;;20.95;36.47
67038;BME280;53940;53.204;6.590;2022-11-20T02:46:33;101200.28;;;20.96;36.65
67038;BME280;53940;53.204;6.590;2022-11-20T02:49:34;101193.81;;;20.99;36.49
67038;BME280;53940;53.204;6.590;2022-11-20T02:52:34;101192.81;;;21.00;36.28
67038;BME280;53940;53.204;6.590;2022-11-20T02:55:35;101180.13;;;21.02;36.17
67038;BME280;53940;53.204;6.590;2022-11-20T02:58:36;101181.84;;;21.03;36.43
67038;BME280;53940;53.204;6.590;2022-11-20T03:01:36;101167.34;;;21.06;36.21
67038;BME280;53940;53.204;6.590;2022-11-20T03:04:36;101172.56;;;21.07;36.32
67038;BME280;53940;53.204;6.590;2022-11-20T03:07:37;101170.59;;;21.09;36.00
67038;BME280;53940;53.204;6.590;2022-11-20T03:10:37;101163.28;;;21.11;36.04
67038;BME280;53940;53.204;6.590;2022-11-20T03:13:37;101162.16;;;21.14;36.18
67038;BME280;53940;53.204;6.590;2022-11-20T03:16:38;101165.53;;;21.16;36.03
67038;BME280;53940;53.204;6.590;2022-11-20T03:19:38;101151.16;;;21.17;36.10
67038;BME280;53940;53.204;6.590;2022-11-20T03:22:38;101150.03;;;21.20;35.93
67038;BME280;53940;53.204;6.590;2022-11-20T03:25:39;101145.25;;;21.23;36.09
67038;BME280;53940;53.204;6.590;2022-11-20T03:28:40;101153.16;;;21.25;35.92
67038;BME280;53940;53.204;6.590;2022-11-20T03:31:41;101143.28;;;21.25;35.92
67038;BME280;53940;53.204;6.590;2022-11-20T03:34:41;101137.66;;;21.28;35.66
67038;BME280;53940;53.204;6.590;2022-11-20T03:37:41;101134.84;;;21.30;35.88
67038;BME280;53940;53.204;6.590;2022-11-20T03:40:42;101120.44;;;21.31;36.02
67038;BME280;53940;53.204;6.590;2022-11-20T03:43:47;101115.66;;;21.35;35.92
67038;BME280;53940;53.204;6.590;2022-11-20T03:46:47;101119.91;;;21.37;35.82
67038;BME280;53940;53.204;6.590;2022-11-20T03:49:47;101110.88;;;21.38;35.56
67038;BME280;53940;53.204;6.590;2022-11-20T03:52:48;101108.91;;;21.40;35.69
67038;BME280;53940;53.204;6.590;2022-11-20T03:55:51;101110.47;;;21.43;35.66
67038;BME280;53940;53.204;6.590;2022-11-20T03:58:51;101106.81;;;21.44;35.67
67038;BME280;53940;53.204;6.590;2022-11-20T04:01:51;101111.03;;;21.47;35.62
67038;BME280;53940;53.204;6.590;2022-11-20T04:04:52;101105.53;;;21.48;35.83
67038;BME280;53940;53.204;6.590;2022-11-20T04:07:53;101099.19;;;21.49;35.82
67038;BME280;53940;53.204;6.590;2022-11-20T04:10:53;101100.88;;;21.50;35.54
67038;BME280;53940;53.204;6.590;2022-11-20T04:13:56;101091.72;;;21.53;35.48
67038;BME280;53940;53.204;6.590;2022-11-20T04:16:57;101096.78;;;21.56;35.54
67038;BME280;53940;53.204;6.590;2022-11-20T04:19:57;101091.41;;;21.56;35.33
67038;BME280;53940;53.204;6.590;2022-11-20T04:22:57;101094.84;;;21.58;35.72
67038;BME280;53940;53.204;6.590;2022-11-20T04:26:03;101091.16;;;21.59;35.38
67038;BME280;53940;53.204;6.590;2022-11-20T04:29:04;101089.19;;;21.61;35.36
67038;BME280;53940;53.204;6.590;2022-11-20T04:32:04;101085.50;;;21.62;35.50
67038;BME280;53940;53.204;6.590;2022-11-20T04:35:05;101087.19;;;21.63;35.29
67038;BME280;53940;53.204;6.590;2022-11-20T04:38:05;101084.38;;;21.65;35.36
67038;BME280;53940;53.204;6.590;2022-11-20T04:41:15;101090.59;;;21.65;35.12
67038;BME280;53940;53.204;6.590;2022-11-20T04:44:16;101079.88;;;21.65;35.43
67038;BME280;53940;53.204;6.590;2022-11-20T04:47:16;101077.03;;;21.67;35.25
67038;BME280;53940;53.204;6.590;2022-11-20T04:50:16;101072.53;;;21.67;35.35
67038;BME280;53940;53.204;6.590;2022-11-20T04:53:17;101077.75;;;21.69;35.15
67038;BME280;53940;53.204;6.590;2022-11-20T04:56:18;101070.56;;;21.70;35.26
67038;BME280;53940;53.204;6.590;2022-11-20T04:59:18;101058.13;;;21.68;35.28
67038;BME280;53940;53.204;6.590;2022-11-20T05:02:19;101057.03;;;21.71;35.10
67038;BME280;53940;53.204;6.590;2022-11-20T05:05:20;101058.88;;;21.71;35.04
67038;BME280;53940;53.204;6.590;2022-11-20T05:08:20;101058.72;;;21.72;35.30
67038;BME280;53940;53.204;6.590;2022-11-20T05:11:21;101059.56;;;21.73;35.42
67038;BME280;53940;53.204;6.590;2022-11-20T05:14:21;101065.75;;;21.73;35.13
67038;BME280;53940;53.204;6.590;2022-11-20T05:17:21;101060.41;;;21.73;35.05
67038;BME280;53940;53.204;6.590;2022-11-20T05:20:22;101052.34;;;21.73;35.36
67038;BME280;53940;53.204;6.590;2022-11-20T05:23:23;101050.53;;;21.74;35.33
67038;BME280;53940;53.204;6.590;2022-11-20T05:26:23;101056.75;;;21.74;35.40
67038;BME280;53940;53.204;6.590;2022-11-20T05:29:23;101050.53;;;21.74;35.08
67038;BME280;53940;53.204;6.590;2022-11-20T05:32:24;101046.84;;;21.75;35.05
67038;BME280;53940;53.204;6.590;2022-11-20T05:35:25;101041.50;;;21.75;35.23
67038;BME280;53940;53.204;6.590;2022-11-20T05:38:25;101044.16;;;21.75;35.22
67038;BME280;53940;53.204;6.590;2022-11-20T05:41:26;101028.94;;;21.75;35.09
67038;BME280;53940;53.204;6.590;2022-11-20T05:44:26;101030.75;;;21.75;35.06
67038;BME280;53940;53.204;6.590;2022-11-20T05:47:28;101025.41;;;21.75;35.13
67038;BME280;53940;53.204;6.590;2022-11-20T05:50:31;101030.75;;;21.75;34.95
67038;BME280;53940;53.204;6.590;2022-11-20T05:53:35;101016.53;;;21.74;35.04
67038;BME280;53940;53.204;6.590;2022-11-20T05:56:36;101014.66;;;21.75;35.09
67038;BME280;53940;53.204;6.590;2022-11-20T05:59:36;101016.34;;;21.76;35.28
67038;BME280;53940;53.204;6.590;2022-11-20T06:02:36;101024.56;;;21.74;35.27
67038;BME280;53940;53.204;6.590;2022-11-20T06:05:37;101019.19;;;21.74;34.94
67038;BME280;53940;53.204;6.590;2022-11-20T06:08:37;101011.97;;;21.75;34.87
67038;BME280;53940;53.204;6.590;2022-11-20T06:11:37;101018.34;;;21.74;35.10
67038;BME280;53940;53.204;6.590;2022-11-20T06:14:38;101017.47;;;21.73;35.08
67038;BME280;53940;53.204;6.590;2022-11-20T06:17:38;101017.47;;;21.73;34.88
67038;BME280;53940;53.204;6.590;2022-11-20T06:20:38;101018.47;;;21.72;35.21
67038;BME280;53940;53.204;6.590;2022-11-20T06:23:39;101021.16;;;21.72;34.95
67038;BME280;53940;53.204;6.590;2022-11-20T06:26:40;101021.16;;;21.72;34.85
67038;BME280;53940;53.204;6.590;2022-11-20T06:29:40;101019.47;;;21.71;34.97
67038;BME280;53940;53.204;6.590;2022-11-20T06:32:40;101026.69;;;21.71;35.13
67038;BME280;53940;53.204;6.590;2022-11-20T06:35:41;101028.50;;;21.70;34.82
67038;BME280;53940;53.204;6.590;2022-11-20T06:38:41;101032.06;;;21.71;34.83
67038;BME280;53940;53.204;6.590;2022-11-20T06:41:42;101027.66;;;21.70;35.03
67038;BME280;53940;53.204;6.590;2022-11-20T06:44:42;101029.47;;;21.69;35.08
67038;BME280;53940;53.204;6.590;2022-11-20T06:47:42;101033.97;;;21.68;34.84
67038;BME280;53940;53.204;6.590;2022-11-20T06:50:43;101019.75;;;21.68;34.80
67038;BME280;53940;53.204;6.590;2022-11-20T06:53:43;101018.03;;;21.67;35.08
67038;BME280;53940;53.204;6.590;2022-11-20T06:56:46;101010.97;;;21.66;35.14
67038;BME280;53940;53.204;6.590;2022-11-20T06:59:48;101014.50;;;21.66;35.01
67038;BME280;53940;53.204;6.590;2022-11-20T07:02:48;101022.56;;;21.66;35.09
67038;BME280;53940;53.204;6.590;2022-11-20T07:05:48;101023.56;;;21.65;35.12
67038;BME280;53940;53.204;6.590;2022-11-20T07:08:50;101014.78;;;21.63;35.18
67038;BME280;53940;53.204;6.590;2022-11-20T07:11:51;101018.31;;;21.64;35.08
67038;BME280;53940;53.204;6.590;2022-11-20T07:14:51;101005.03;;;21.62;34.95
67038;BME280;53940;53.204;6.590;2022-11-20T07:17:52;101018.44;;;21.62;35.01
67038;BME280;53940;53.204;6.590;2022-11-20T07:20:52;101016.75;;;21.61;35.10
67038;BME280;53940;53.204;6.590;2022-11-20T07:23:53;101031.16;;;21.60;34.80
67038;BME280;53940;53.204;6.590;2022-11-20T07:26:53;101030.19;;;21.61;35.03
67038;BME280;53940;53.204;6.590;2022-11-20T07:29:54;101033.00;;;21.60;34.94
67038;BME280;53940;53.204;6.590;2022-11-20T07:32:55;101029.47;;;21.59;34.79
67038;BME280;53940;53.204;6.590;2022-11-20T07:35:59;101033.84;;;21.60;34.98
67038;BME280;53940;53.204;6.590;2022-11-20T07:39:00;101030.47;;;21.58;34.91
67038;BME280;53940;53.204;6.590;2022-11-20T07:42:00;101029.63;;;21.58;34.91
67038;BME280;53940;53.204;6.590;2022-11-20T07:45:01;101034.13;;;21.57;34.98
67038;BME280;53940;53.204;6.590;2022-11-20T07:48:01;101031.44;;;21.57;35.07
67038;BME280;53940;53.204;6.590;2022-11-20T07:51:02;101033.28;;;21.57;34.95
67038;BME280;53940;53.204;6.590;2022-11-20T07:54:02;101035.09;;;21.56;35.16
67038;BME280;53940;53.204;6.590;2022-11-20T07:57:02;101022.69;;;21.55;35.27
67038;BME280;53940;53.204;6.590;2022-11-20T08:00:07;101018.59;;;21.51;35.07
67038;BME280;53940;53.204;6.590;2022-11-20T08:03:11;101024.81;;;21.51;34.91
67038;BME280;53940;53.204;6.590;2022-11-20T08:06:11;101022.25;;;21.50;35.07
67038;BME280;53940;53.204;6.590;2022-11-20T08:09:12;101028.47;;;21.50;35.14
67038;BME280;53940;53.204;6.590;2022-11-20T08:12:18;101022.41;;;21.48;35.07
67038;BME280;53940;53.204;6.590;2022-11-20T08:15:39;101022.41;;;21.48;35.04
67038;BME280;53940;53.204;6.590;2022-11-20T08:18:40;101021.69;;;21.46;35.17
67038;BME280;53940;53.204;6.590;2022-11-20T08:21:40;101022.56;;;21.47;35.07
67038;BME280;53940;53.204;6.590;2022-11-20T08:24:41;101023.56;;;21.46;35.19
67038;BME280;53940;53.204;6.590;2022-11-20T08:27:41;101022.69;;;21.45;35.33
67038;BME280;53940;53.204;6.590;2022-11-20T08:30:42;101024.50;;;21.45;35.25
67038;BME280;53940;53.204;6.590;2022-11-20T08:33:42;101028.19;;;21.44;34.97
67038;BME280;53940;53.204;6.590;2022-11-20T08:36:42;101028.19;;;21.44;35.51
67038;BME280;53940;53.204;6.590;2022-11-20T08:39:43;101025.50;;;21.44;35.22
67038;BME280;53940;53.204;6.590;2022-11-20T08:42:48;101038.22;;;21.41;35.18
67038;BME280;53940;53.204;6.590;2022-11-20T08:45:49;101040.03;;;21.41;35.35
67038;BME280;53940;53.204;6.590;2022-11-20T08:48:49;101031.16;;;21.40;35.54
67038;BME280;53940;53.204;6.590;2022-11-20T08:51:49;101028.47;;;21.40;35.43
67038;BME280;53940;53.204;6.590;2022-11-20T08:54:53;101024.13;;;21.39;35.66
67038;BME280;53940;53.204;6.590;2022-11-20T08:57:54;101033.13;;;21.38;35.46
67038;BME280;53940;53.204;6.590;2022-11-20T09:00:54;101023.38;;;21.37;35.76
67038;BME280;53940;53.204;6.590;2022-11-20T09:03:56;101028.75;;;21.37;35.27
67038;BME280;53940;53.204;6.590;2022-11-20T09:06:59;101027.06;;;21.36;35.56
67038;BME280;53940;53.204;6.590;2022-11-20T09:10:00;101023.53;;;21.36;35.52
67038;BME280;53940;53.204;6.590;2022-11-20T09:13:00;101020.00;;;21.35;35.34
67038;BME280;53940;53.204;6.590;2022-11-20T09:16:07;101023.69;;;21.34;35.72
67038;BME280;53940;53.204;6.590;2022-11-20T09:19:07;101016.63;;;21.33;35.46
67038;BME280;53940;53.204;6.590;2022-11-20T09:22:08;101006.88;;;21.32;35.85
67038;BME280;53940;53.204;6.590;2022-11-20T09:25:08;101016.91;;;21.30;35.57
67038;BME280;53940;53.204;6.590;2022-11-20T09:28:09;101014.34;;;21.28;35.73
67038;BME280;53940;53.204;6.590;2022-11-20T09:31:26;101019.00;;;21.26;35.70
67038;BME280;53940;53.204;6.590;2022-11-20T09:34:26;101013.66;;;21.26;35.55
67038;BME280;53940;53.204;6.590;2022-11-20T09:37:26;101002.22;;;21.24;35.71
67038;BME280;53940;53.204;6.590;2022-11-20T09:40:28;101004.19;;;21.22;36.02
67038;BME280;53940;53.204;6.590;2022-11-20T09:47:03;101003.63;;;21.19;36.14
67038;BME280;53940;53.204;6.590;2022-11-20T09:50:25;100995.69;;;21.17;36.15
67038;BME280;53940;53.204;6.590;2022-11-20T09:57:15;100991.47;;;21.14;36.16
67038;BME280;53940;53.204;6.590;2022-11-20T10:00:17;100993.31;;;21.14;36.25
67038;BME280;53940;53.204;6.590;2022-11-20T10:03:32;100990.78;;;21.12;36.14
67038;BME280;53940;53.204;6.590;2022-11-20T10:10:21;100984.72;;;21.10;36.71
67038;BME280;53940;53.204;6.590;2022-11-20T10:14:14;100987.41;;;21.10;36.43
67038;BME280;53940;53.204;6.590;2022-11-20T10:20:37;100980.47;;;21.08;36.88
67038;BME280;53940;53.204;6.590;2022-11-20T10:23:59;100984.97;;;21.07;36.88
67038;BME280;53940;53.204;6.590;2022-11-20T10:30:09;100981.47;;;21.07;36.96
67038;BME280;53940;53.204;6.590;2022-11-20T10:33:18;100978.78;;;21.07;36.85
67038;BME280;53940;53.204;6.590;2022-11-20T10:36:25;100961.84;;;21.06;36.66
67038;BME280;53940;53.204;6.590;2022-11-20T10:39:41;100956.50;;;21.06;36.85
67038;BME280;53940;53.204;6.590;2022-11-20T10:42:57;100950.31;;;21.06;36.87
67038;BME280;53940;53.204;6.590;2022-11-20T10:46:05;100945.78;;;21.06;37.13
67038;BME280;53940;53.204;6.590;2022-11-20T10:49:18;100939.59;;;21.06;37.06
67038;BME280;53940;53.204;6.590;2022-11-20T10:52:35;100936.75;;;21.07;37.08
67038;BME280;53940;53.204;6.590;2022-11-20T10:55:46;100929.44;;;21.09;36.96
67038;BME280;53940;53.204;6.590;2022-11-20T11:02:17;100926.19;;;21.16;37.00
67038;BME280;53940;53.204;6.590;2022-11-20T11:05:40;100923.22;;;21.19;36.93
67038;BME280;53940;53.204;6.590;2022-11-20T11:08:42;100925.34;;;21.25;36.57
67038;BME280;53940;53.204;6.590;2022-11-20T11:11:44;100917.03;;;21.28;36.73
67038;BME280;53940;53.204;6.590;2022-11-20T11:14:49;100913.78;;;21.34;36.92
67038;BME280;53940;53.204;6.590;2022-11-20T11:17:50;100907.97;;;21.39;36.71
67038;BME280;53940;53.204;6.590;2022-11-20T11:20:51;100903.16;;;21.43;36.39
67038;BME280;53940;53.204;6.590;2022-11-20T11:24:04;100903.59;;;21.48;36.62
67038;BME280;53940;53.204;6.590;2022-11-20T11:27:12;100908.66;;;21.51;36.69
67038;BME280;53940;53.204;6.590;2022-11-20T11:30:15;100907.94;;;21.59;36.56
67038;BME280;53940;53.204;6.590;2022-11-20T11:33:22;100903.13;;;21.62;36.38
67038;BME280;53940;53.204;6.590;2022-11-20T11:36:23;100896.50;;;21.66;36.25
67038;BME280;53940;53.204;6.590;2022-11-20T11:39:27;100884.53;;;21.71;36.44
67038;BME280;53940;53.204;6.590;2022-11-20T11:42:28;100877.88;;;21.75;36.53
67038;BME280;53940;53.204;6.590;2022-11-20T11:45:30;100870.53;;;21.77;36.22
67038;BME280;53940;53.204;6.590;2022-11-20T11:48:30;100870.22;;;21.80;36.45
67038;BME280;53940;53.204;6.590;2022-11-20T11:51:41;100861.19;;;21.81;36.55
67038;BME280;53940;53.204;6.590;2022-11-20T11:54:54;100857.38;;;21.84;36.50
67038;BME280;53940;53.204;6.590;2022-11-20T12:01:32;100855.53;;;21.84;36.16
67038;BME280;53940;53.204;6.590;2022-11-20T12:04:46;100858.22;;;21.84;36.28
67038;BME280;53940;53.204;6.590;2022-11-20T12:11:32;100856.53;;;21.83;36.46
67038;BME280;53940;53.204;6.590;2022-11-20T12:14:37;100844.09;;;21.82;36.04
67038;BME280;53940;53.204;6.590;2022-11-20T12:17:37;100836.03;;;21.82;35.89
67038;BME280;53940;53.204;6.590;2022-11-20T12:20:41;100836.22;;;21.80;36.26
67038;BME280;53940;53.204;6.590;2022-11-20T12:30:33;100825.22;;;21.74;36.07
67038;BME280;53940;53.204;6.590;2022-11-20T12:43:24;100835.41;;;21.70;36.58
67038;BME280;53940;53.204;6.590;2022-11-20T12:46:51;;;;21.72;
67038;BME280;53940;53.204;6.590;2022-11-20T12:50:10;100832.56;;;21.72;36.57
67038;BME280;53940;53.204;6.590;2022-11-20T12:53:27;100827.47;;;21.68;36.23
67038;BME280;53940;53.204;6.590;2022-11-20T12:56:49;100832.13;;;21.66;36.34
67038;BME280;53940;53.204;6.590;2022-11-20T13:03:17;100820.00;;;21.62;36.56
67038;BME280;53940;53.204;6.590;2022-11-20T13:06:21;100813.94;;;21.60;36.43
67038;BME280;53940;53.204;6.590;2022-11-20T13:09:22;100810.56;;;21.58;36.43
67038;BME280;53940;53.204;6.590;2022-11-20T13:16:02;100790.41;;;21.54;36.81
67038;BME280;53940;53.204;6.590;2022-11-20T13:19:11;100781.81;;;21.50;36.76
67038;BME280;53940;53.204;6.590;2022-11-20T13:22:12;100775.59;;;21.50;36.67
67038;BME280;53940;53.204;6.590;2022-11-20T13:25:29;100765.16;;;21.47;36.47
67038;BME280;53940;53.204;6.590;2022-11-20T13:28:30;100769.66;;;21.46;36.60
67038;BME280;53940;53.204;6.590;2022-11-20T13:31:33;100763.75;;;21.43;36.63
67038;BME280;53940;53.204;6.590;2022-11-20T13:34:35;100755.03;;;21.40;36.44
67038;BME280;53940;53.204;6.590;2022-11-20T13:37:37;100751.63;;;21.38;36.69
67038;BME280;53940;53.204;6.590;2022-11-20T13:41:00;100758.97;;;21.36;36.77
67038;BME280;53940;53.204;6.590;2022-11-20T13:44:38;100754.75;;;21.34;36.54
67038;BME280;53940;53.204;6.590;2022-11-20T13:47:47;100755.06;;;21.31;36.85
67038;BME280;53940;53.204;6.590;2022-11-20T13:51:06;100752.53;;;21.29;36.75
67038;BME280;53940;53.204;6.590;2022-11-20T14:00:50;100725.31;;;21.24;36.64
67038;BME280;53940;53.204;6.590;2022-11-20T14:03:52;100723.63;;;21.23;36.93
67038;BME280;53940;53.204;6.590;2022-11-20T14:06:53;100720.94;;;21.23;36.87
67038;BME280;53940;53.204;6.590;2022-11-20T14:09:55;100720.22;;;21.21;36.79
67038;BME280;53940;53.204;6.590;2022-11-20T14:12:56;100711.50;;;21.19;36.99
67038;BME280;53940;53.204;6.590;2022-11-20T14:15:57;100712.50;;;21.18;36.75
67038;BME280;53940;53.204;6.590;2022-11-20T14:19:08;100700.09;;;21.17;36.91
67038;BME280;53940;53.204;6.590;2022-11-20T14:22:28;100706.44;;;21.16;36.92
67038;BME280;53940;53.204;6.590;2022-11-20T14:25:28;100696.69;;;21.14;37.09
67038;BME280;53940;53.204;6.590;2022-11-20T14:28:31;100691.50;;;21.13;36.89
67038;BME280;53940;53.204;6.590;2022-11-20T14:31:31;100691.66;;;21.11;36.73
67038;BME280;53940;53.204;6.590;2022-11-20T14:34:38;100680.06;;;21.11;36.85
67038;BME280;53940;53.204;6.590;2022-11-20T14:37:40;100687.28;;;21.10;36.80
67038;BME280;53940;53.204;6.590;2022-11-20T14:40:41;100677.56;;;21.09;37.01
67038;BME280;53940;53.204;6.590;2022-11-20T14:43:46;100671.47;;;21.07;36.89
67038;BME280;53940;53.204;6.590;2022-11-20T14:46:47;100667.97;;;21.07;36.66
67038;BME280;53940;53.204;6.590;2022-11-20T14:49:49;100660.06;;;21.05;37.02
67038;BME280;53940;53.204;6.590;2022-11-20T14:52:58;100665.44;;;21.05;37.02
67038;BME280;53940;53.204;6.590;2022-11-20T14:56:01;100662.88;;;21.04;37.08
67038;BME280;53940;53.204;6.590;2022-11-20T14:59:02;100656.72;;;21.03;36.80
67038;BME280;53940;53.204;6.590;2022-11-20T15:02:09;100647.94;;;21.01;36.91
67038;BME280;53940;53.204;6.590;2022-11-20T15:05:11;100647.94;;;21.01;36.86
67038;BME280;53940;53.204;6.590;2022-11-20T15:08:12;100652.47;;;21.00;37.00
67038;BME280;53940;53.204;6.590;2022-11-20T15:11:18;100648.25;;;20.98;36.86
67038;BME280;53940;53.204;6.590;2022-11-20T15:14:20;100645.72;;;20.96;36.85
67038;BME280;53940;53.204;6.590;2022-11-20T15:17:20;100655.56;;;20.96;36.86
67038;BME280;53940;53.204;6.590;2022-11-20T15:20:24;100651.22;;;20.95;36.72
67038;BME280;53940;53.204;6.590;2022-11-20T15:23:26;100650.53;;;20.93;37.13
67038;BME280;53940;53.204;6.590;2022-11-20T15:26:27;100638.13;;;20.92;36.94
67038;BME280;53940;53.204;6.590;2022-11-20T15:29:28;100633.75;;;20.91;37.06
67038;BME280;53940;53.204;6.590;2022-11-20T15:32:28;100631.09;;;20.91;36.96
67038;BME280;53940;53.204;6.590;2022-11-20T15:35:31;100621.50;;;20.88;37.00
67038;BME280;53940;53.204;6.590;2022-11-20T15:38:31;100622.66;;;20.85;36.88
67038;BME280;53940;53.204;6.590;2022-11-20T15:41:32;100612.03;;;20.84;36.98
67038;BME280;53940;53.204;6.590;2022-11-20T15:44:33;100611.19;;;20.83;36.87
67038;BME280;53940;53.204;6.590;2022-11-20T15:47:34;100615.84;;;20.81;36.86
67038;BME280;53940;53.204;6.590;2022-11-20T15:50:43;100610.78;;;20.78;37.19
67038;BME280;53940;53.204;6.590;2022-11-20T15:53:48;100601.91;;;20.78;36.91
67038;BME280;53940;53.204;6.590;2022-11-20T15:56:49;100589.66;;;20.75;37.13
67038;BME280;53940;53.204;6.590;2022-11-20T15:59:52;100592.31;;;20.75;37.06
67038;BME280;53940;53.204;6.590;2022-11-20T16:02:52;100584.59;;;20.72;37.05
67038;BME280;53940;53.204;6.590;2022-11-20T16:05:53;100580.22;;;20.71;36.95
67038;BME280;53940;53.204;6.590;2022-11-20T16:08:53;100576.03;;;20.68;36.87
67038;BME280;53940;53.204;6.590;2022-11-20T16:11:53;100578.69;;;20.68;36.86
67038;BME280;53940;53.204;6.590;2022-11-20T16:14:54;100580.66;;;20.66;37.04
67038;BME280;53940;53.204;6.590;2022-11-20T16:18:15;100581.50;;;20.67;36.99
67038;BME280;53940;53.204;6.590;2022-11-20T16:21:16;100585.19;;;20.66;37.07
67038;BME280;53940;53.204;6.590;2022-11-20T16:24:17;100582.66;;;20.64;37.26
67038;BME280;53940;53.204;6.590;2022-11-20T16:27:17;100581.78;;;20.64;37.10
67038;BME280;53940;53.204;6.590;2022-11-20T16:30:17;100584.47;;;20.64;37.06
67038;BME280;53940;53.204;6.590;2022-11-20T16:33:18;100583.47;;;20.65;37.15
67038;BME280;53940;53.204;6.590;2022-11-20T16:36:19;100582.78;;;20.63;37.02
67038;BME280;53940;53.204;6.590;2022-11-20T16:39:20;100581.78;;;20.64;36.94
67038;BME280;53940;53.204;6.590;2022-11-20T16:42:20;100579.09;;;20.64;36.90
67038;BME280;53940;53.204;6.590;2022-11-20T16:45:20;100575.44;;;20.65;37.17
67038;BME280;53940;53.204;6.590;2022-11-20T16:48:21;100570.94;;;20.65;36.92
67038;BME280;53940;53.204;6.590;2022-11-20T16:51:22;100567.41;;;20.65;37.09
67038;BME280;53940;53.204;6.590;2022-11-20T16:54:23;100568.25;;;20.65;36.95
67038;BME280;53940;53.204;6.590;2022-11-20T16:57:24;100563.75;;;20.66;37.00